Flight Track Log - Related Links

Times and Time Zones

All times are in EDT time to prevent confusion due to time zone crossing. See the UAL582 flight status page for this flight to view local times or setup timezone preferences in your user account.

Time Position Orientation Groundspeed Altitude Reporting Facility
EDT Latitude Longitude Course Direction KTS MPH feet Rate Location/Type
Tue 05:30:58 PM 43.6500 -79.6833 276° West 170 196 2,000  Level Toronto Center
Tue 05:31:58 PM 43.6167 -79.7500 235° Southwest 240 276 4,500 2,150 Climbing Toronto Center
Tue 05:32:58 PM 43.6167 -79.8333 270° West 270 311 6,300 2,500 Climbing Toronto Center
Tue 05:33:58 PM 43.6833 -79.9167 318° Northwest 280 322 9,500 2,500 Climbing Toronto Center
Tue 05:34:58 PM 43.6833 -80.0167 270° West 310 357 11,300 2,050 Climbing Toronto Center
Tue 05:35:58 PM 43.7000 -80.1667 279° West 370 426 13,600 2,250 Climbing Toronto Center
Tue 05:36:00 PM 43.6807 -79.6797 276° West  Level FlightAware Approximate
Tue 05:36:58 PM 43.7167 -80.3000 280° West 370 426 15,800  Level Toronto Center
Tue 05:37:58 PM 43.7333 -80.4667 278° West 390 449 17,900 2,050 Climbing Toronto Center
Tue 05:38:58 PM 43.7333 -80.6000 270° West 400 460 19,900 1,900 Climbing Toronto Center
Tue 05:39:58 PM 43.7000 -80.7667 255° West 400 460 21,700 1,900 Climbing Toronto Center
Tue 05:40:58 PM 43.6500 -80.9000 243° Southwest 410 472 23,700 1,850 Climbing Toronto Center
Tue 05:41:58 PM 43.6167 -81.0667 255° West 410 472 25,400 1,600 Climbing Toronto Center
Tue 05:42:58 PM 43.5833 -81.2167 253° West 420 483 26,900 1,400 Climbing Toronto Center
Tue 05:43:58 PM 43.5500 -81.3667 253° West 420 483 28,200 1,500 Climbing Toronto Center
Tue 05:44:58 PM 43.5167 -81.5167 253° West 420 483 29,900 900 Climbing Toronto Center
Tue 05:45:58 PM 43.4833 -81.6833 255° West 410 472 30,000 50 Climbing Toronto Center
Tue 05:46:58 PM 43.4667 -81.8167 260° West 410 472 30,000  Level Toronto Center
Tue 05:47:58 PM 43.4167 -81.9667 245° Southwest 410 472 30,000  Level Toronto Center
Tue 05:48:58 PM 43.3833 -82.1167 253° West 410 472 30,000  Level Toronto Center
Tue 05:49:58 PM 43.3500 -82.2667 253° West 420 483 30,000  Level Toronto Center
Tue 05:50:58 PM 43.3167 -82.4333 255° West 420 483 30,000  Level Toronto Center
Tue 05:51:58 PM 43.2833 -82.5833 253° West 410 472 30,000  Level Toronto Center
Tue 05:52:43 PM 43.2619 -82.6956 255° West 419 482 30,000  Level Cleveland Center
Tue 05:53:43 PM 43.2197 -82.8422 248° West 419 482 30,000  Level Cleveland Center
Tue 05:54:43 PM 43.1769 -82.9972 249° West 424 488 30,000  Level Cleveland Center
Tue 05:55:43 PM 43.1361 -83.1436 249° West 424 488 30,000  Level Cleveland Center
Tue 05:56:43 PM 43.0953 -83.2900 249° West 424 488 30,000  Level Cleveland Center
Tue 05:57:43 PM 43.0542 -83.4386 249° West 424 488 30,000  Level Cleveland Center
Tue 05:58:43 PM 43.0108 -83.5900 249° West 424 488 30,000  Level Cleveland Center
Tue 05:59:43 PM 42.9694 -83.7386 249° West 424 488 30,000  Level Cleveland Center
Tue 06:00:43 PM 42.9503 -83.8992 261° West 424 488 30,000  Level Cleveland Center
Tue 06:01:43 PM 42.9328 -84.0628 262° West 430 495 30,000  Level Cleveland Center
Tue 06:02:43 PM 42.9197 -84.2236 264° West 430 495 30,000  Level Cleveland Center
Tue 06:03:43 PM 42.9019 -84.3814 261° West 430 495 30,000  Level Cleveland Center
Tue 06:04:13 PM 42.8983 -84.4481 266° West 435 501 30,000  Level Chicago Center
Tue 06:05:15 PM 42.8817 -84.6119 262° West 439 505 30,000  Level Chicago Center
Tue 06:06:17 PM 42.8647 -84.7781 262° West 443 510 30,000  Level Chicago Center
Tue 06:07:19 PM 42.8469 -84.9456 262° West 447 514 30,000  Level Chicago Center
Tue 06:08:21 PM 42.8258 -85.1444 262° West 443 510 30,000 -144 Level Chicago Center
Tue 06:09:24 PM 42.8069 -85.3100 261° West 442 509 29,700 -624 Descending Chicago Center
Tue 06:10:26 PM 42.7892 -85.4731 262° West 438 504 28,700 -1,065 Descending Chicago Center
Tue 06:11:28 PM 42.7622 -85.6317 257° West 431 496 27,500 -1,694 Descending Chicago Center
Tue 06:12:30 PM 42.7336 -85.7844 256° West 419 482 25,200 -2,419 Descending Chicago Center
Tue 06:13:32 PM 42.7078 -85.9339 257° West 408 470 22,500 -2,371 Descending Chicago Center
Tue 06:14:34 PM 42.6806 -86.0825 256° West 404 465 20,300 -1,210 Descending Chicago Center
Tue 06:15:36 PM 42.6486 -86.2592 256° West 400 460 20,000 -581 Descending Chicago Center
Tue 06:16:38 PM 42.6214 -86.3939 255° West 364 419 19,100 -1,306 Descending Chicago Center
Tue 06:17:40 PM 42.5975 -86.5244 256° West 357 411 17,300 -1,500 Descending Chicago Center
Tue 06:18:42 PM 42.5747 -86.6506 256° West 348 400 16,000 -1,452 Descending Chicago Center
Tue 06:19:44 PM 42.5517 -86.7653 255° West 319 367 14,300 -2,032 Descending Chicago Center
Tue 06:20:46 PM 42.5211 -86.8700 248° West 301 346 11,800 -2,016 Descending Chicago Center
Tue 06:21:49 PM 42.4872 -86.9944 250° West 292 336 10,100 -864 Descending Chicago Center
Tue 06:22:51 PM 42.4581 -87.0969 249° West 290 334 10,000 -48 Descending Chicago Center
Tue 06:23:53 PM 42.4303 -87.2014 250° West 294 338 10,000  Level Chicago Center
Tue 06:24:55 PM 42.4017 -87.3033 249° West 293 337 10,000  Level Chicago Center
Tue 06:25:57 PM 42.3700 -87.4214 250° West 291 335 10,000  Level Chicago Center
Tue 06:26:59 PM 42.3411 -87.5231 249° West 290 334 10,000  Level Chicago Center
Tue 06:28:01 PM 42.2822 -87.5933 221° Southwest 283 326 10,000 -48 Level Chicago Center
Tue 06:29:03 PM 42.2194 -87.6608 219° Southwest 288 331 9,900 -823 Descending Chicago Center
Tue 06:30:05 PM 42.1575 -87.7258 218° Southwest 285 328 8,300 -919 Descending Chicago Center
Tue 06:31:07 PM 42.0967 -87.8203 229° Southwest 285 328 8,000 -151 Descending Chicago Center
Tue 06:32:04 PM 42.0833 -87.9167 259° West 291 335 8,000  Level Chicago TRACON
Tue 06:33:04 PM 42.0667 -88.0000 255° West 230 265 8,000 -524 Level Chicago TRACON
Tue 06:34:10 PM 42.0667 -88.0833 270° West 203 234 6,900 -1,143 Descending Chicago TRACON
Tue 06:35:10 PM 42.0667 -88.1667 270° West 203 234 5,600 -1,316 Descending Chicago TRACON
Tue 06:36:04 PM 42.0333 -88.2000 217° Southwest 204 235 4,400 -1,105 Descending Chicago TRACON
Tue 06:37:04 PM 41.9833 -88.1833 166° South 194 223 3,500 -900 Descending Chicago TRACON

Login

Don't have an account? Register now (free) for customized features, flight alerts, and more!